Time;durP1;ratioP1;P1;durP2;ratioP2;P2;SDS_P1;SDS_P2;PMS_P1;PMS_P2;Temp;Humidity;BMP_temperature;BMP_pressure;BME280_temperature;BME280_humidity;BME280_pressure;Samples;Min_cycle;Max_cycle;Signal;HPM_P1;HPM_P2
2023/06/04 00:01:07;;;;;;;4.65;2.58;;;;;;;;;;4984780;28;20104;-87
2023/06/04 00:03:34;;;;;;;5.22;3.13;;;7.80;95.90;;;;;;4985145;28;20613;-87
2023/06/04 00:06:00;;;;;;;6.97;2.70;;;;;;;;;;4985129;28;20038;-87
2023/06/04 00:08:26;;;;;;;6.78;3.63;;;;;;;;;;4982334;28;20034;-88
2023/06/04 00:10:52;;;;;;;5.82;2.28;;;;;;;;;;4984176;28;20074;-88
2023/06/04 00:13:19;;;;;;;8.43;2.50;;;;;;;;;;4984383;28;20045;-87
2023/06/04 00:15:45;;;;;;;3.63;2.10;;;;;;;;;;4983897;28;20036;-88
2023/06/04 00:18:13;;;;;;;6.43;2.58;;;;;;;;;;4985509;28;20037;-88
2023/06/04 00:20:39;;;;;;;7.97;2.70;;;;;;;;;;4983581;28;20033;-88
2023/06/04 00:23:05;;;;;;;5.68;3.33;;;;;;;;;;4985808;28;20119;-88
2023/06/04 00:25:32;;;;;;;5.45;2.80;;;;;;;;;;4982825;28;20197;-88
2023/06/04 00:27:58;;;;;;;5.75;3.28;;;;;;;;;;4985396;28;20042;-86
2023/06/04 00:30:24;;;;;;;5.25;2.88;;;;;;;;;;4984553;28;20056;-88
2023/06/04 00:32:50;;;;;;;8.45;3.33;;;;;;;;;;4987635;28;20069;-87
2023/06/04 00:35:16;;;;;;;9.32;3.88;;;;;;;;;;4986383;28;20042;-87
2023/06/04 00:37:42;;;;;;;6.78;2.97;;;;;;;;;;4968804;28;20033;-86
2023/06/04 00:40:08;;;;;;;10.07;4.30;;;7.40;97.50;;;;;;4986137;28;20445;-86
2023/06/04 00:42:34;;;;;;;6.07;3.97;;;;;;;;;;4985348;28;20185;-87
2023/06/04 00:45:00;;;;;;;11.02;3.78;;;;;;;;;;4988601;28;20066;-87
2023/06/04 00:47:27;;;;;;;6.13;3.20;;;;;;;;;;4986601;28;20053;-86
2023/06/04 00:49:56;;;;;;;10.57;3.63;;;7.30;97.50;;;;;;4985238;28;20029;-87
2023/06/04 00:52:22;;;;;;;8.38;3.40;;;;;;;;;;4985494;28;20445;-87
2023/06/04 00:54:49;;;;;;;9.68;3.95;;;;;;;;;;4993457;28;20076;-87
2023/06/04 00:57:15;;;;;;;8.50;4.00;;;;;;;;;;4991999;28;20045;-87
2023/06/04 00:59:41;;;;;;;8.70;3.75;;;;;;;;;;4988680;28;20455;-88
2023/06/04 01:02:12;;;;;;;12.60;4.35;;;7.30;98.10;;;;;;4989127;28;20049;-86
2023/06/04 01:04:56;;;;;;;6.90;3.40;;;7.10;98.10;;;;;;4974127;28;20368;-87
2023/06/04 01:07:23;;;;;;;6.55;3.58;;;;;;;;;;4987392;28;20470;-87
2023/06/04 01:09:49;;;;;;;7.05;3.80;;;7.20;98.40;;;;;;4992035;28;20052;-87
2023/06/04 01:12:15;;;;;;;7.18;4.72;;;;;;;;;;4990127;28;20388;-87
2023/06/04 01:14:42;;;;;;;11.02;4.57;;;;;;;;;;4988481;28;20046;-86
2023/06/04 01:17:36;;;;;;;12.40;3.95;;;7.20;98.70;;;;;;4984863;28;20040;-86
2023/06/04 01:20:12;;;;;;;10.75;5.13;;;7.20;98.70;;;;;;4989844;28;20038;-85
2023/06/04 01:22:41;;;;;;;7.97;4.55;;;7.20;98.80;;;;;;4986999;28;20033;-86
2023/06/04 01:25:35;;;;;;;12.25;5.05;;;7.00;99.90;;;;;;4985323;28;20679;-87
2023/06/04 01:28:04;;;;;;;12.48;4.68;;;7.00;98.90;;;;;;4983849;28;20049;-86
2023/06/04 01:30:32;;;;;;;10.93;4.30;;;7.00;99.10;;;;;;4975643;28;20045;-86
2023/06/04 01:33:02;;;;;;;11.40;4.07;;;7.10;99.10;;;;;;4987032;28;20395;-86
2023/06/04 01:35:31;;;;;;;6.80;3.90;;;7.10;99.20;;;;;;4975199;28;20121;-86
2023/06/04 01:37:57;;;;;;;7.10;3.05;;;;;;;;;;4985601;28;20035;-86
2023/06/04 01:40:26;;;;;;;10.80;3.92;;;7.90;99.50;;;;;;4993318;28;20073;-86
2023/06/04 01:42:52;;;;;;;12.85;5.05;;;;;;;;;;4981212;28;20041;-87
2023/06/04 01:45:18;;;;;;;12.73;5.95;;;;;;;;;;4989609;28;20244;-87
2023/06/04 01:47:44;;;;;;;15.35;6.65;;;;;;;;;;4990474;28;20985;-86
2023/06/04 01:50:10;;;;;;;18.00;7.32;;;;;;;;;;4991188;28;20049;-87
2023/06/04 01:52:40;;;;;;;19.52;7.25;;;;;;;;;;4985355;28;20041;-87
2023/06/04 01:55:08;;;;;;;16.77;6.40;;;7.30;99.90;;;;;;4984934;28;20078;-87
2023/06/04 01:57:38;;;;;;;20.52;8.27;;;7.40;99.90;;;;;;4995140;28;20034;-87
2023/06/04 02:00:08;;;;;;;12.80;6.82;;;7.20;99.90;;;;;;4971719;28;20528;-87
2023/06/04 02:02:35;;;;;;;19.85;7.32;;;;;;;;;;4990911;28;20133;-86
2023/06/04 02:05:02;;;;;;;15.60;7.40;;;;;;;;;;4986759;28;20762;-86
2023/06/04 02:07:28;;;;;;;13.98;7.40;;;;;;;;;;4989695;28;20335;-86
2023/06/04 02:09:54;;;;;;;18.13;7.68;;;;;;;;;;4968232;28;20042;-87
2023/06/04 02:12:20;;;;;;;17.70;7.32;;;7.40;99.90;;;;;;4990018;28;20040;-86
2023/06/04 02:14:46;;;;;;;19.08;8.30;;;;;;;;;;4987841;28;20037;-87
2023/06/04 02:17:13;;;;;;;17.17;7.50;;;;;;;;;;4990839;28;20506;-87
2023/06/04 02:19:44;;;;;;;13.95;6.43;;;7.30;99.90;;;;;;4986272;28;20041;-86
2023/06/04 02:22:11;;;;;;;14.07;6.70;;;7.20;99.90;;;;;;4977694;28;20085;-86
2023/06/04 02:24:43;;;;;;;16.52;7.57;;;7.30;99.90;;;;;;4986457;28;20041;-87
2023/06/04 02:27:10;;;;;;;13.70;7.10;;;7.20;99.90;;;;;;4991268;28;20045;-86
2023/06/04 02:29:37;;;;;;;15.65;7.72;;;;;;;;;;4974769;28;20042;-87
2023/06/04 02:32:04;;;;;;;13.82;6.20;;;7.00;99.90;;;;;;4988238;28;20117;-86
2023/06/04 02:34:30;;;;;;;12.40;5.78;;;;;;;;;;4975118;28;20041;-85
2023/06/04 02:36:58;;;;;;;10.02;5.95;;;;;;;;;;4988816;28;20045;-86
2023/06/04 02:39:24;;;;;;;11.98;6.65;;;;;;;;;;4988664;28;20034;-86
2023/06/04 02:41:50;;;;;;;9.50;5.68;;;;;;;;;;4986976;28;20542;-86
2023/06/04 02:44:16;;;;;;;9.57;5.00;;;;;;;;;;4983453;28;20060;-86
2023/06/04 02:46:43;;;;;;;5.55;4.22;;;;;;;;;;4985695;28;20042;-86
2023/06/04 02:49:13;;;;;;;8.00;4.57;;;6.80;99.90;;;;;;4970802;28;20042;-86
2023/06/04 02:51:40;;;;;;;7.30;4.53;;;6.70;99.90;;;;;;4968053;28;20038;-86
2023/06/04 02:54:06;;;;;;;6.55;3.67;;;;;;;;;;4973225;28;20041;-87
2023/06/04 02:56:32;;;;;;;7.82;4.35;;;;;;;;;;4986705;28;20038;-86
2023/06/04 02:59:01;;;;;;;5.63;4.20;;;;;;;;;;4996532;28;20097;-86
2023/06/04 03:01:28;;;;;;;6.07;3.95;;;;;;;;;;4987882;28;20041;-86
2023/06/04 03:03:54;;;;;;;5.75;3.78;;;;;;;;;;4989170;28;20064;-86
2023/06/04 03:06:21;;;;;;;7.43;3.50;;;4.90;99.90;;;;;;4987710;28;20409;-86
2023/06/04 03:08:52;;;;;;;4.55;2.90;;;6.30;99.90;;;;;;4970487;28;20181;-86
2023/06/04 03:11:22;;;;;;;5.63;2.83;;;;;;;;;;4988856;28;20037;-87
2023/06/04 03:13:48;;;;;;;5.50;3.67;;;6.20;99.90;;;;;;4983861;28;20499;-87
2023/06/04 03:16:15;;;;;;;8.27;4.10;;;;;;;;;;4970004;28;20034;-86
2023/06/04 03:18:42;;;;;;;9.55;4.32;;;;;;;;;;4987258;28;20042;-86
2023/06/04 03:21:08;;;;;;;5.93;3.58;;;6.10;99.90;;;;;;4986464;28;20034;-86
2023/06/04 03:23:35;;;;;;;4.32;3.45;;;;;;;;;;4972798;28;20041;-87
2023/06/04 03:26:01;;;;;;;4.88;3.72;;;;;;;;;;4986023;28;20042;-87
2023/06/04 03:28:27;;;;;;;4.95;2.70;;;;;;;;;;4985536;28;20132;-87
2023/06/04 03:30:54;;;;;;;6.35;3.88;;;;;;;;;;4987905;28;20244;-87
2023/06/04 03:33:20;;;;;;;6.40;3.70;;;;;;;;;;4989539;28;20038;-87
2023/06/04 03:35:47;;;;;;;4.35;3.53;;;;;;;;;;4984690;28;20045;-86
2023/06/04 03:38:15;;;;;;;7.03;4.07;;;6.00;99.90;;;;;;4989983;28;20506;-87
2023/06/04 03:40:41;;;;;;;5.63;4.20;;;;;;;;;;4969681;28;20041;-87
2023/06/04 03:43:07;;;;;;;14.50;4.32;;;;;;;;;;4989705;28;20276;-87
2023/06/04 03:45:33;;;;;;;6.55;3.97;;;6.00;99.90;;;;;;4984559;28;20073;-86
2023/06/04 03:47:59;;;;;;;5.88;3.63;;;;;;;;;;4982969;28;20046;-87
2023/06/04 03:50:25;;;;;;;5.00;3.97;;;5.60;99.90;;;;;;4984915;28;20072;-87
2023/06/04 03:52:51;;;;;;;5.10;3.67;;;;;;;;;;4986682;28;20041;-86
2023/06/04 03:55:18;;;;;;;3.88;2.97;;;;;;;;;;4984821;28;20049;-88
2023/06/04 03:57:44;;;;;;;4.30;2.85;;;;;;;;;;4985552;28;20038;-87
2023/06/04 04:00:12;;;;;;;4.40;3.10;;;5.80;99.90;;;;;;4989479;28;20101;-86
2023/06/04 04:02:40;;;;;;;8.55;3.45;;;6.10;99.90;;;;;;4986190;28;20048;-87
2023/06/04 04:05:06;;;;;;;4.47;3.47;;;;;;;;;;4971512;28;20068;-87
2023/06/04 04:07:32;;;;;;;4.75;3.10;;;;;;;;;;4989880;28;20045;-87
2023/06/04 04:09:58;;;;;;;4.60;2.70;;;;;;;;;;4985757;28;20108;-87
2023/06/04 04:12:24;;;;;;;3.78;2.78;;;6.30;99.90;;;;;;4987349;28;20038;-86
2023/06/04 04:14:50;;;;;;;3.67;2.60;;;;;;;;;;4992547;28;20067;-87
2023/06/04 04:17:17;;;;;;;3.22;2.70;;;;;;;;;;4987567;28;20040;-87
2023/06/04 04:19:43;;;;;;;5.22;3.00;;;;;;;;;;4985033;28;20037;-87
2023/06/04 04:22:11;;;;;;;4.32;2.30;;;7.20;99.90;;;;;;4985499;28;20043;-87
2023/06/04 04:24:37;;;;;;;3.42;2.67;;;;;;;;;;4969083;28;20037;-88
2023/06/04 04:27:05;;;;;;;3.33;2.58;;;8.10;99.90;;;;;;4985089;28;20069;-87
2023/06/04 04:29:35;;;;;;;2.97;2.35;;;;;;;;;;4971999;28;20041;-87
2023/06/04 04:32:11;;;;;;;2.60;1.63;;;9.00;99.90;;;;;;4982347;28;20499;-87
2023/06/04 04:34:54;;;;;;;2.35;1.50;;;9.30;99.90;;;;;;5000790;28;20125;-87
2023/06/04 04:37:21;;;;;;;1.90;1.40;;;9.50;99.90;;;;;;4969193;28;20583;-87
2023/06/04 04:39:49;;;;;;;3.17;2.10;;;9.50;99.90;;;;;;4989299;28;20088;-87
2023/06/04 04:42:15;;;;;;;3.20;2.30;;;;;;;;;;4985965;28;20452;-88
2023/06/04 04:44:41;;;;;;;3.15;2.20;;;;;;;;;;4986158;28;20103;-87
2023/06/04 04:47:07;;;;;;;3.55;2.28;;;9.90;99.90;;;;;;4987651;28;20045;-87
2023/06/04 04:49:33;;;;;;;4.53;2.33;;;;;;;;;;4971737;28;20041;-87
2023/06/04 04:52:00;;;;;;;3.25;2.53;;;;;;;;;;4988350;28;20155;-87
2023/06/04 04:54:26;;;;;;;5.63;2.63;;;;;;;;;;4987969;28;20423;-88
2023/06/04 04:56:52;;;;;;;4.90;2.70;;;;;;;;;;4975476;28;20033;-87
2023/06/04 04:59:18;;;;;;;4.38;2.83;;;;;;;;;;4983598;28;20586;-87
2023/06/04 05:01:44;;;;;;;3.50;2.80;;;;;;;;;;4986486;28;20545;-88
2023/06/04 05:04:10;;;;;;;3.65;2.75;;;;;;;;;;4987045;28;20518;-87
2023/06/04 05:06:40;;;;;;;5.15;3.10;;;11.10;97.80;;;;;;4991477;28;20041;-87
2023/06/04 05:09:07;;;;;;;4.78;3.10;;;11.10;98.00;;;;;;4976169;28;20045;-87
2023/06/04 05:11:33;;;;;;;8.43;3.88;;;11.10;99.90;;;;;;4990119;28;20097;-88
2023/06/04 05:13:59;;;;;;;8.52;5.20;;;;;;;;;;4993720;28;20112;-87
2023/06/04 05:16:27;;;;;;;11.23;5.75;;;;;;;;;;4986741;28;20049;-87
2023/06/04 05:18:57;;;;;;;10.38;5.75;;;11.90;97.40;;;;;;4988949;28;20190;-87
2023/06/04 05:21:26;;;;;;;10.63;6.10;;;;;;;;;;4984538;28;20613;-87
2023/06/04 05:23:52;;;;;;;15.73;7.72;;;12.10;97.40;;;;;;4985945;28;20037;-87
2023/06/04 05:26:22;;;;;;;10.00;6.28;;;;;;;;;;4966649;28;20101;-88
2023/06/04 05:28:52;;;;;;;14.40;6.60;;;12.80;97.90;;;;;;4967649;28;20042;-86
2023/06/04 05:31:18;;;;;;;11.43;5.55;;;;;;;;;;4980005;28;20627;-86
2023/06/04 05:33:49;;;;;;;13.35;5.50;;;13.50;99.90;;;;;;4989873;28;20048;-87
2023/06/04 05:36:16;;;;;;;10.88;6.35;;;;;;;;;;4970548;28;20308;-86
2023/06/04 05:38:44;;;;;;;13.73;5.85;;;;;;;;;;5006044;28;20090;-87
2023/06/04 05:41:11;;;;;;;12.93;5.63;;;;;;;;;;4983780;28;20137;-87
2023/06/04 05:43:40;;;;;;;13.60;5.55;;;17.30;99.60;;;;;;4968084;28;20046;-87
2023/06/04 05:46:07;;;;;;;12.48;5.45;;;12.40;96.30;;;;;;4973333;28;20334;-88
2023/06/04 05:48:33;;;;;;;11.50;5.28;;;16.10;98.90;;;;;;4967816;28;20101;-87
2023/06/04 05:50:59;;;;;;;12.82;5.20;;;16.30;95.60;;;;;;4973052;28;20364;-87
2023/06/04 05:53:25;;;;;;;11.65;4.65;;;;;;;;;;4972878;28;20100;-88
2023/06/04 05:56:27;;;;;;;11.13;5.03;;;17.30;95.40;;;;;;4990940;28;20482;-88
2023/06/04 05:58:53;;;;;;;13.10;4.35;;;14.90;93.80;;;;;;4915222;29;20485;-87
2023/06/04 06:01:19;;;;;;;11.27;4.65;;;;;;;;;;4969907;28;20056;-87
2023/06/04 06:03:46;;;;;;;13.40;4.90;;;17.10;91.80;;;;;;4987975;28;20185;-87
2023/06/04 06:06:11;;;;;;;11.82;4.28;;;16.60;94.30;;;;;;4968383;28;20046;-85
2023/06/04 06:08:37;;;;;;;13.25;4.90;;;16.70;92.10;;;;;;4991604;28;20483;-86
2023/06/04 06:11:04;;;;;;;12.75;5.68;;;;;;;;;;4970752;28;20041;-87
2023/06/04 06:13:40;;;;;;;12.63;5.13;;;;;;;;;;4993530;28;20138;-87
2023/06/04 06:16:06;;;;;;;12.73;4.43;;;;;;;;;;4989647;28;20049;-87
2023/06/04 06:18:41;;;;;;;13.95;4.78;;;16.60;91.90;;;;;;4993242;28;20423;-89
2023/06/04 06:21:10;;;;;;;8.07;2.42;;;17.00;91.40;;;;;;4994875;28;20045;-91
2023/06/04 06:23:40;;;;;;;8.70;4.25;;;;;;;;;;4981972;28;20128;-86
2023/06/04 06:26:08;;;;;;;17.15;5.22;;;;;;;;;;4992447;28;20042;-88
2023/06/04 06:28:37;;;;;;;8.40;4.32;;;;;;;;;;4994850;28;20052;-89
2023/06/04 06:31:03;;;;;;;8.20;3.88;;;19.00;89.70;;;;;;5000471;28;20282;-88
2023/06/04 06:33:29;;;;;;;10.05;4.07;;;22.10;90.60;;;;;;5002523;28;20679;-88
2023/06/04 06:35:55;;;;;;;12.05;3.15;;;23.30;83.90;;;;;;4984207;28;20045;-89
2023/06/04 06:38:20;;;;;;;8.18;2.55;;;24.50;80.70;;;;;;4981260;28;20065;-87
2023/06/04 06:40:46;;;;;;;8.18;2.80;;;26.10;77.10;;;;;;4976121;28;20069;-87
2023/06/04 06:43:12;;;;;;;6.72;2.05;;;26.10;73.20;;;;;;4988175;28;20034;-88
2023/06/04 06:45:38;;;;;;;7.82;2.10;;;26.70;67.10;;;;;;4966058;28;20570;-87
2023/06/04 06:48:04;;;;;;;7.13;1.85;;;27.60;65.20;;;;;;4969803;28;20041;-87
2023/06/04 06:50:30;;;;;;;8.85;1.85;;;30.90;64.00;;;;;;4976944;28;20212;-87
2023/06/04 06:52:56;;;;;;;5.25;1.63;;;;;;;;;;4991557;28;20046;-85
2023/06/04 06:55:25;;;;;;;6.05;1.30;;;29.40;58.40;;;;;;4989177;28;20062;-87
2023/06/04 06:57:51;;;;;;;11.48;2.00;;;29.80;57.60;;;;;;4972162;28;20033;-89
2023/06/04 07:00:18;;;;;;;6.72;1.65;;;30.40;56.70;;;;;;4971439;28;20045;-87
2023/06/04 07:02:44;;;;;;;4.40;1.23;;;30.50;52.80;;;;;;4967395;28;20042;-87
2023/06/04 07:05:11;;;;;;;6.70;1.10;;;30.50;53.20;;;;;;4970489;28;20045;-90
2023/06/04 07:07:37;;;;;;;8.85;2.13;;;30.60;51.80;;;;;;4967685;28;20046;-84
2023/06/04 07:10:03;;;;;;;4.00;1.17;;;30.50;51.80;;;;;;4982854;28;20419;-86
2023/06/04 07:12:29;;;;;;;6.00;1.25;;;30.30;51.40;;;;;;4966035;28;20048;-87
2023/06/04 07:14:55;;;;;;;5.25;1.65;;;30.80;55.80;;;;;;4979931;28;20037;-85
2023/06/04 07:17:22;;;;;;;8.50;1.83;;;30.90;51.90;;;;;;4981921;28;20581;-86
2023/06/04 07:19:48;;;;;;;9.35;1.50;;;31.30;50.30;;;;;;4991623;28;20079;-85
2023/06/04 07:22:15;;;;;;;4.72;1.27;;;31.10;49.40;;;;;;4986403;28;20591;-85
2023/06/04 07:24:41;;;;;;;6.95;1.98;;;31.90;49.90;;;;;;4979491;28;20070;-85
2023/06/04 07:27:12;;;;;;;12.85;2.15;;;32.40;48.80;;;;;;4980834;28;20049;-85
2023/06/04 07:29:38;;;;;;;10.10;1.60;;;32.70;48.10;;;;;;4965981;28;20160;-86
2023/06/04 07:32:04;;;;;;;5.78;1.20;;;33.00;48.10;;;;;;4974957;28;20777;-87
2023/06/04 07:34:30;;;;;;;6.47;1.70;;;33.50;47.60;;;;;;4983701;28;20058;-85
2023/06/04 07:36:56;;;;;;;6.78;1.95;;;33.70;46.60;;;;;;4983909;28;20679;-85
2023/06/04 07:39:21;;;;;;;7.13;1.45;;;31.90;44.50;;;;;;4970012;28;20045;-85
2023/06/04 07:41:47;;;;;;;7.50;1.48;;;34.10;44.60;;;;;;4986548;28;20117;-90
2023/06/04 07:44:13;;;;;;;6.60;1.15;;;34.30;44.00;;;;;;4972280;28;20060;-85
2023/06/04 07:46:39;;;;;;;7.25;1.52;;;33.90;44.70;;;;;;4985902;28;20080;-86
2023/06/04 07:49:05;;;;;;;5.63;1.40;;;34.20;45.00;;;;;;4992620;28;20038;-88
2023/06/04 07:51:32;;;;;;;6.82;1.25;;;34.20;43.70;;;;;;5007676;28;20481;-88
2023/06/04 07:54:00;;;;;;;5.97;1.50;;;34.40;44.80;;;;;;4986711;28;20064;-88
2023/06/04 07:56:26;;;;;;;5.30;1.17;;;34.50;43.30;;;;;;4965898;28;20597;-88
2023/06/04 07:58:52;;;;;;;7.55;1.33;;;34.60;44.40;;;;;;4988963;28;20025;-88
2023/06/04 08:01:18;;;;;;;5.25;0.95;;;34.50;42.10;;;;;;4992083;28;20439;-89
2023/06/04 08:03:44;;;;;;;5.57;0.73;;;;;;;;;;4990378;28;20065;-86
2023/06/04 08:06:10;;;;;;;6.13;0.80;;;34.70;42.30;;;;;;4992925;28;20125;-88
2023/06/04 08:08:36;;;;;;;5.68;1.05;;;34.60;41.40;;;;;;4968011;28;20508;-88
2023/06/04 08:11:02;;;;;;;5.30;1.40;;;34.50;41.80;;;;;;4977404;28;20123;-88
2023/06/04 08:13:28;;;;;;;4.38;0.88;;;34.40;41.20;;;;;;4981706;28;20058;-88
2023/06/04 08:15:54;;;;;;;3.97;0.73;;;34.60;40.50;;;;;;4985525;28;20113;-87
2023/06/04 08:18:20;;;;;;;4.90;1.13;;;34.90;41.10;;;;;;4989467;28;20190;-87
2023/06/04 08:20:45;;;;;;;4.57;0.77;;;35.20;40.30;;;;;;4982938;28;20227;-88
2023/06/04 08:23:11;;;;;;;4.28;0.75;;;35.50;40.60;;;;;;5002076;28;20482;-87
2023/06/04 08:25:40;;;;;;;3.42;0.60;;;35.20;39.90;;;;;;4979405;28;20042;-87
2023/06/04 08:28:09;;;;;;;4.15;0.70;;;35.40;40.10;;;;;;4986376;28;20104;-86
2023/06/04 08:30:35;;;;;;;4.93;0.93;;;35.80;41.70;;;;;;4972748;28;20377;-88
2023/06/04 08:33:01;;;;;;;3.97;1.00;;;36.10;39.60;;;;;;4971907;28;20459;-89
2023/06/04 08:35:27;;;;;;;4.30;1.00;;;36.50;39.30;;;;;;4987005;28;20144;-88
2023/06/04 08:37:53;;;;;;;4.38;0.60;;;36.80;38.90;;;;;;4974217;28;20077;-87
2023/06/04 08:40:19;;;;;;;3.22;0.60;;;36.90;38.60;;;;;;4987835;28;20116;-88
2023/06/04 08:42:45;;;;;;;4.22;0.70;;;37.10;38.90;;;;;;5003833;28;20534;-90
2023/06/04 08:45:16;;;;;;;2.95;0.50;;;37.30;38.00;;;;;;4974715;28;20061;-87
2023/06/04 08:48:35;;;;;;;5.50;0.60;;;35.70;35.50;;;;;;4996511;28;20046;-87
2023/06/04 08:50:49;;;;;;;3.65;0.45;;;37.50;36.90;;;;;;4957369;28;20086;-89
2023/06/04 08:53:15;;;;;;;4.07;0.60;;;37.00;37.60;;;;;;4951869;28;20046;-88
2023/06/04 08:55:42;;;;;;;2.30;0.40;;;36.40;36.10;;;;;;4969397;28;20104;-89
2023/06/04 08:58:10;;;;;;;3.10;0.55;;;36.50;36.60;;;;;;4951580;28;20041;-91
2023/06/04 09:00:36;;;;;;;4.50;1.05;;;35.90;36.70;;;;;;4983857;28;20176;-88
2023/06/04 09:03:03;;;;;;;1.77;0.50;;;35.40;36.80;;;;;;4958273;28;20793;-87
2023/06/04 09:05:29;;;;;;;1.80;0.38;;;34.20;34.60;;;;;;4973191;28;20042;-89
2023/06/04 09:07:59;;;;;;;1.70;0.32;;;35.20;36.60;;;;;;4970553;28;20046;-86
2023/06/04 09:10:29;;;;;;;1.60;0.50;;;35.50;35.70;;;;;;4957117;28;20066;-94
2023/06/04 09:13:06;;;;;;;1.77;0.30;;;36.10;36.20;;;;;;4935962;28;20066;-89
2023/06/04 09:16:00;;;;;;;4.35;0.55;;;35.10;35.60;;;;;;4966361;28;20047;-89
2023/06/04 09:18:36;;;;;;;2.78;0.60;;;37.00;34.40;;;;;;4968791;28;20050;-89
2023/06/04 09:21:07;;;;;;;2.55;0.40;;;37.10;35.20;;;;;;4968845;28;20123;-88
2023/06/04 09:23:43;;;;;;;2.53;0.60;;;37.10;34.40;;;;;;4965828;28;20461;-89
2023/06/04 09:26:11;;;;;;;2.05;0.50;;;37.30;34.90;;;;;;4964528;28;20057;-89
2023/06/04 09:29:29;;;;;;;2.42;0.63;;;35.80;32.70;;;;;;4966224;28;20130;-92
2023/06/04 09:32:01;;;;;;;1.75;0.40;;;35.20;33.80;;;;;;4968623;28;20508;-93
2023/06/04 09:35:16;;;;;;;2.25;0.63;;;34.80;34.00;;;;;;4951878;28;20034;-91
2023/06/04 09:37:51;;;;;;;2.22;0.47;;;35.40;35.00;;;;;;4953664;28;20221;-88
2023/06/04 09:41:00;;;;;;;3.72;0.70;;;35.20;36.90;;;;;;4980834;28;20046;-91
2023/06/04 09:43:35;;;;;;;2.25;0.30;;;35.60;37.30;;;;;;4915133;28;20043;-90
2023/06/04 09:46:15;;;;;;;1.42;0.38;;;35.40;35.30;;;;;;4916067;28;20512;-88
2023/06/04 09:49:05;;;;;;;2.83;0.50;;;35.20;35.00;;;;;;4938111;28;20078;-90
2023/06/04 09:51:36;;;;;;;3.72;0.80;;;34.90;33.50;;;;;;4924608;28;20042;-92
2023/06/04 09:54:41;;;;;;;2.97;0.40;;;34.60;34.70;;;;;;4939336;28;20050;-92
2023/06/04 10:00:48;;;;;;;4.05;0.63;;;35.10;36.40;;;;;;4970147;28;22060;-90
2023/06/04 10:03:25;;;;;;;2.45;0.55;;;35.20;36.30;;;;;;4971655;28;20052;-92
2023/06/04 10:06:00;;;;;;;5.28;0.63;;;35.20;34.90;;;;;;4974205;28;20183;-91
2023/06/04 10:08:27;;;;;;;3.90;0.50;;;35.00;33.80;;;;;;4987687;28;21543;-89
2023/06/04 10:14:52;;;;;;;3.13;0.50;;;34.70;33.90;;;;;;4980214;28;20087;-92
2023/06/04 10:17:27;;;;;;;3.50;0.52;;;34.50;34.10;;;;;;4983417;28;20535;-92
2023/06/04 10:20:54;;;;;;;;;;;;;;;;;;;;;
2023/06/04 10:35:09;;;;;;;2.47;0.20;;;34.10;35.20;;;;;;4962550;28;20046;-96
2023/06/04 10:49:02;;;;;;;6.05;0.90;;;31.00;38.70;;;;;;4859969;29;20053;-93
2023/06/04 10:56:01;;;;;;;2.08;0.55;;;28.10;43.20;;;;;;4874140;29;20112;-95
2023/06/04 10:58:55;;;;;;;5.70;1.05;;;26.30;44.30;;;;;;4874091;29;20972;-91
2023/06/04 11:01:32;;;;;;;4.07;0.50;;;26.00;42.10;;;;;;4878311;28;20049;-95
2023/06/04 11:04:03;;;;;;;2.75;0.50;;;25.50;46.60;;;;;;4940585;28;20874;-96
2023/06/04 11:06:32;;;;;;;1.65;0.55;;;25.30;43.70;;;;;;4947629;28;20578;-92
2023/06/04 11:09:08;;;;;;;4.20;0.50;;;24.90;45.00;;;;;;4942270;28;20458;-96
2023/06/04 11:12:29;;;;;;;3.42;0.60;;;24.60;45.80;;;;;;4960763;28;20046;-96
2023/06/04 11:19:07;;;;;;;2.65;0.45;;;22.30;45.80;;;;;;4902165;29;20148;-92
2023/06/04 11:25:15;;;;;;;3.40;0.55;;;23.10;48.70;;;;;;4926734;28;20192;-94
2023/06/04 11:27:41;;;;;;;2.70;0.70;;;;;;;;;;4974224;28;20117;-89
2023/06/04 11:30:35;;;;;;;5.90;0.50;;;22.70;51.70;;;;;;4983710;28;20108;-94
2023/06/04 11:33:10;;;;;;;3.05;1.13;;;22.40;52.20;;;;;;4973209;28;20039;-92
2023/06/04 11:36:26;;;;;;;6.50;0.80;;;22.20;48.50;;;;;;4960083;28;20034;-91
2023/06/04 11:39:06;;;;;;;5.63;0.85;;;21.90;48.30;;;;;;4968607;28;20091;-92
2023/06/04 11:41:38;;;;;;;5.05;0.95;;;21.80;48.60;;;;;;4954453;28;20057;-94
2023/06/04 11:44:06;;;;;;;2.55;0.57;;;21.70;48.60;;;;;;4971197;28;20057;-89
2023/06/04 11:46:39;;;;;;;1.65;0.40;;;21.60;49.40;;;;;;4964489;28;20065;-93
2023/06/04 11:53:31;;;;;;;2.72;0.47;;;21.30;49.30;;;;;;4913892;29;20069;-93
2023/06/04 11:56:25;;;;;;;1.50;0.30;;;21.30;50.80;;;;;;4914763;29;20075;-87
2023/06/04 11:59:00;;;;;;;4.43;0.52;;;21.30;51.30;;;;;;4910990;29;20047;-89
2023/06/04 12:05:44;;;;;;;2.33;0.50;;;21.20;51.90;;;;;;4898961;29;19926;-89
2023/06/04 12:08:51;;;;;;;4.32;0.55;;;21.20;53.20;;;;;;4892790;29;20040;-92
2023/06/04 12:11:31;;;;;;;3.08;0.40;;;21.20;53.80;;;;;;4914077;29;21480;-88
2023/06/04 12:18:00;;;;;;;2.83;0.68;;;21.40;53.70;;;;;;4867528;29;21154;-88
2023/06/04 12:20:33;;;;;;;3.63;0.70;;;21.30;54.10;;;;;;4839103;29;20360;-88
2023/06/04 12:23:02;;;;;;;2.97;1.13;;;;;;;;;;4891667;29;20091;-86
2023/06/04 12:25:29;;;;;;;2.88;0.73;;;;;;;;;;4883429;29;20095;-86
2023/06/04 12:39:20;;;;;;;4.13;0.60;;;21.60;54.00;;;;;;4994514;28;20025;-92
2023/06/04 12:45:28;;;;;;;4.97;0.93;;;;;;;;;;4933838;28;20107;-89
2023/06/04 12:47:54;;;;;;;7.47;0.98;;;;;;;;;;4965835;28;20105;-91
2023/06/04 12:58:36;;;;;;;2.60;0.57;;;20.90;55.20;;;;;;4971470;28;20069;-89
2023/06/04 13:01:02;;;;;;;5.13;1.23;;;;;;;;;;4933156;28;20094;-86
2023/06/04 13:04:15;;;;;;;;;;;;;;;;;;;;;
2023/06/04 13:07:04;;;;;;;2.60;0.80;;;21.10;56.90;;;;;;4994372;28;20062;-88
2023/06/04 13:09:34;;;;;;;3.85;0.70;;;;;;;;;;4986374;28;20172;-88
2023/06/04 13:12:26;;;;;;;4.55;0.90;;;20.90;58.90;;;;;;4991192;28;20073;-88
2023/06/04 13:14:56;;;;;;;4.47;0.98;;;;;;;;;;4939153;28;20068;-91
2023/06/04 13:17:35;;;;;;;3.85;0.77;;;21.40;56.50;;;;;;4981699;28;20125;-89
2023/06/04 13:20:05;;;;;;;3.50;0.60;;;21.40;56.20;;;;;;4981204;28;20034;-89
2023/06/04 13:23:01;;;;;;;3.30;1.25;;;21.50;55.10;;;;;;4993465;28;20045;-88
2023/06/04 13:29:22;;;;;;;2.22;0.70;;;;;;;;;;4862987;29;20133;-94
2023/06/04 13:31:48;;;;;;;4.63;1.03;;;;;;;;;;4866667;29;20040;-91
2023/06/04 13:34:15;;;;;;;3.45;0.88;;;;;;;;;;4881781;29;20048;-92
2023/06/04 13:36:44;;;;;;;3.20;0.70;;;;;;;;;;4941773;28;20562;-91
2023/06/04 13:39:11;;;;;;;4.13;0.73;;;;;;;;;;4983075;28;20041;-91
2023/06/04 13:41:40;;;;;;;3.25;0.80;;;;;;;;;;4987072;28;20033;-92
2023/06/04 13:44:07;;;;;;;4.90;1.02;;;;;;;;;;4991120;28;20096;-88
2023/06/04 13:49:40;;;;;;;3.88;0.80;;;21.50;58.20;;;;;;4982367;28;20950;-94
2023/06/04 13:52:18;;;;;;;7.03;1.48;;;21.60;58.30;;;;;;4978674;28;20042;-94
2023/06/04 13:54:44;;;;;;;4.70;0.68;;;;;;;;;;4972641;28;20066;-88
2023/06/04 13:57:11;;;;;;;4.78;1.02;;;;;;;;;;4989480;28;20136;-89
2023/06/04 13:59:44;;;;;;;11.35;2.17;;;21.60;59.10;;;;;;4998828;28;20037;-89
2023/06/04 14:02:26;;;;;;;6.38;0.70;;;21.60;58.70;;;;;;4997345;28;20836;-93
2023/06/04 14:04:55;;;;;;;4.60;1.13;;;;;;;;;;4990322;28;20040;-92
2023/06/04 14:07:24;;;;;;;4.03;0.80;;;;;;;;;;4990289;28;20045;-91
2023/06/04 14:09:54;;;;;;;6.22;0.98;;;;;;;;;;4991770;28;20038;-92
2023/06/04 14:12:27;;;;;;;4.78;0.80;;;21.50;59.80;;;;;;4999299;28;20065;-94
2023/06/04 14:15:24;;;;;;;3.08;0.82;;;;;;;;;;4974785;28;20148;-93
2023/06/04 14:18:19;;;;;;;3.00;0.80;;;21.50;59.40;;;;;;4987994;28;20038;-91
2023/06/04 14:20:47;;;;;;;3.47;0.90;;;21.40;58.90;;;;;;4968740;28;20042;-92
2023/06/04 14:23:17;;;;;;;3.25;0.90;;;;;;;;;;4990211;28;20092;-91
2023/06/04 14:26:06;;;;;;;4.25;0.70;;;21.30;59.00;;;;;;4972706;28;20049;-91
2023/06/04 14:28:32;;;;;;;3.80;0.80;;;;;;;;;;4969220;28;20099;-91
2023/06/04 14:30:59;;;;;;;2.13;0.63;;;;;;;;;;4984856;28;20057;-88
2023/06/04 14:33:25;;;;;;;3.30;0.65;;;;;;;;;;4984807;28;20048;-90
2023/06/04 14:35:54;;;;;;;4.28;0.82;;;;;;;;;;4982553;28;20045;-88
2023/06/04 14:38:23;;;;;;;4.20;0.70;;;;;;;;;;4990800;28;20097;-89
2023/06/04 14:40:56;;;;;;;3.38;0.52;;;21.50;60.00;;;;;;4991312;28;20053;-88
2023/06/04 14:43:29;;;;;;;3.00;0.70;;;21.40;60.10;;;;;;4989817;28;20038;-89
2023/06/04 14:46:01;;;;;;;2.45;0.60;;;21.40;60.30;;;;;;5008617;28;20068;-93
2023/06/04 14:48:27;;;;;;;3.90;0.90;;;;;;;;;;4977205;28;20041;-89
2023/06/04 14:50:59;;;;;;;4.53;0.60;;;21.40;60.30;;;;;;4995249;28;20168;-91
2023/06/04 14:53:39;;;;;;;5.75;0.90;;;21.40;60.00;;;;;;5010362;28;20037;-96
2023/06/04 14:56:05;;;;;;;3.65;0.70;;;21.40;61.00;;;;;;4995759;28;20097;-93
2023/06/04 14:58:34;;;;;;;4.85;1.05;;;21.30;59.20;;;;;;4998469;28;20095;-93
2023/06/04 15:01:03;;;;;;;5.22;0.80;;;;;;;;;;4995204;28;20109;-89
2023/06/04 15:03:30;;;;;;;4.03;0.60;;;;;;;;;;4978465;28;20086;-93
2023/06/04 15:06:05;;;;;;;3.72;0.57;;;21.00;60.30;;;;;;4996881;28;20046;-95
2023/06/04 15:08:34;;;;;;;4.72;0.77;;;20.90;60.30;;;;;;4988452;28;20121;-92
2023/06/04 15:11:14;;;;;;;6.22;1.00;;;20.90;60.60;;;;;;4988761;28;20037;-92
2023/06/04 15:13:44;;;;;;;4.90;0.60;;;21.90;63.40;;;;;;4973987;28;20049;-92